Henrique Machado

Scout - Flamengo
3 Apr 2027
Samstag
Verarbeitung

Persönlichkeit

Anpassungsfähigkeit (17) Ehrgeiz (1) Kontroverse (5) Loyalität (4) Druck (16) Professionalität (2) Fairness (5) Temperament (14)

Profil

Trainerstil Demokratisch
Lizenz Kontinentale Pro
Entschlossenheit 10
Menschenführung 8
Motivation 8
Disziplin 12
Arbeitszufriedenheit
34%
Ermüdung
0%
Rolle Scout
Gehalt 21.2K p/W
Vertrag 14.03.2030

Leistung

Verhalten Gut
Trainingseffektivität
24%
Spielerentwicklung
75%
Verletzungsprävention
80%
Taktische Umsetzung
75%

Letzte Ereignisse

Nahm an einer Scouting-Besprechung teil jetzt
Spieler begutachtet 7T her
Nahm an einer Scouting-Besprechung teil 7T her
Spieler begutachtet 7T her
Spieler begutachtet 7T her
Spieler begutachtet 7T her
Spieler begutachtet 14T her
Spieler begutachtet 14T her

Aktuell beobachtet

72
Spieler Verein Status Fähigkeit Vertrauen Beobachtet Zuletzt beobachtet Letzte Stimme
Radek Vítek Middlesbrough Aktiv 140 / 142 40% 4 02.04.2027 -
Carl Rushworth Coventry City Aktiv 136 / 137 40% 2 02.04.2027 -
Diogo Costa Paris Saint-Germain Aktiv 167 / 159 40% 1 02.04.2027 -
Robin Roefs Sunderland Aktiv 153 / 142 40% 2 01.04.2027 -
Franco Israel Torino Aktiv 122 / 127 40% 1 01.04.2027 -
Gabriel Brazão Santos Aktiv 128 / 138 40% 3 28.03.2027 -
Cezary Miszta Rio Ave Aktiv 129 / 132 40% 1 28.03.2027 -
Anthony Patterson Wrexham Aktiv 143 / 124 40% 1 28.03.2027 -
Sam Tickle Wigan Athletic Aktiv 130 / 126 40% 1 27.03.2027 -
Víctor Gómez Braga Aktiv 147 / 144 40% 2 24.03.2027 -
Enzo Barrenechea Benfica Aktiv 152 / 151 40% 2 24.03.2027 -
Boubacar Kamara Aston Villa Aktiv 155 / 170 40% 1 24.03.2027 -
Jakub Stolarczyk Leicester City Aktiv 141 / 142 40% 2 22.03.2027 -
Beau Reus Waasland-Beveren Aktiv 123 / 124 40% 1 22.03.2027 -
Bright Arrey-Mbi Braga Aktiv 144 / 129 40% 2 20.03.2027 -
Hugo Pérez Torreense Aktiv 119 / 117 40% 1 20.03.2027 -
Alberto Costa Porto Aktiv 140 / 146 40% 1 20.03.2027 -
Jakub Kiwior Porto Aktiv 166 / 155 40% 1 18.03.2027 -
Matthijs de Ligt Manchester United Aktiv 151 / 153 40% 1 18.03.2027 -
Brandon Aguilera Rio Ave Aktiv 133 / 119 40% 1 18.03.2027 -
Alan Varela Porto Aktiv 155 / 151 40% 1 17.03.2027 -
Maximiliano Araújo Sporting CP Aktiv 137 / 150 40% 1 17.03.2027 -
Luan Patrick Estrela da Amadora Aktiv 109 / 116 40% 1 17.03.2027 -
Marco Carnesecchi Atalanta Aktiv 164 / 159 40% 5 14.03.2027 -
Maduka Okoye Udinese Aktiv 135 / 139 40% 1 14.03.2027 -
Yehvann Diouf OGC Nice Aktiv 152 / 134 40% 1 14.03.2027 -
Ricard Sánchez Estoril Praia Aktiv 136 / 120 40% 3 13.03.2027 -
Juan María Alcedo Torreense Aktiv 107 / 113 40% 1 12.03.2027 -
Leonardo Lelo Braga Aktiv 131 / 135 40% 1 12.03.2027 -
Wesley Fofana Chelsea Aktiv 154 / 165 40% 1 10.03.2027 -
Lorenzo Palmisani Frosinone Aktiv 119 / 135 40% 2 08.03.2027 -
Kostantis Tzolakis Hull City Aktiv 134 / 145 40% 1 08.03.2027 -
Edoardo Corvi Parma Aktiv 122 / 124 40% 2 04.03.2027 -
Bart Verbruggen Brighton Aktiv 169 / 159 40% 2 03.03.2027 -
Senne Lammens Manchester United Aktiv 146 / 151 40% 2 03.03.2027 -
Lucas Chevalier Paris Saint-Germain Aktiv 170 / 157 40% 1 03.03.2027 -
Rodrigo Pinheiro Famalicao Aktiv 115 / 124 40% 1 01.03.2027 -
Jordan Holsgrove Estoril Praia Aktiv 142 / 129 40% 1 01.03.2027 -
Berke Özer LOSC Lille Aktiv 133 / 129 40% 1 28.02.2027 -
Mads Hermansen West Ham United Aktiv 137 / 142 40% 1 15.02.2027 -
Lazar Carević Famalicao Aktiv 119 / 136 40% 1 12.02.2027 -
Mile Svilar AS Roma Aktiv 167 / 159 40% 1 12.02.2027 -
Elia Caprile Cagliari Aktiv 138 / 141 40% 1 02.02.2027 -
Đorđe Petrović Bournemouth Aktiv 155 / 143 40% 1 02.02.2027 -
Matheus Bahia Internacional Verloren 122 / 116 65% 1 14.12.2026 Befürworten
Isidro Pitta Bragantino Verloren 135 / 127 65% 1 02.12.2026 -
Mateo Cassierra Atlético Mineiro Verloren 125 / 137 65% 1 01.12.2026 -
Tamble Monteiro Rio Ave Aktiv 131 / 113 40% 2 30.11.2026 -
Percy Erasmus SuperSport United Aktiv 121 / 118 40% 4 30.11.2026 -
Figueiredo Alverca Aktiv 125 / 133 40% 1 25.11.2026 -
Jorge Pascual Granada Aktiv 121 / 140 40% 1 20.11.2026 -
Henrique Araújo Casa Pia Aktiv 120 / 115 40% 2 17.11.2026 -
Yanis Begraoui Estoril Praia Aktiv 146 / 136 40% 3 16.11.2026 -
Yuri Alberto Corinthians Verloren 152 / 137 40% 2 16.11.2026 -
Alfonso Trezza Arouca Aktiv 126 / 119 40% 3 11.11.2026 -
Lucas Duarte Felgueiras Aktiv 111 / 108 40% 2 10.11.2026 -
Mateo Retegui Al-Qadisiyah Aktiv 145 / 161 40% 1 29.10.2026 -
Morgan Whittaker Middlesbrough Aktiv 124 / 124 40% 1 29.10.2026 -
Vinícius Lopes Santa Clara Aktiv 120 / 126 40% 2 24.10.2026 -
Korede Osundina Casa Pia Aktiv 110 / 125 40% 1 24.10.2026 -
Gustavo Silva Vitoria Guimaraes Aktiv 137 / 126 40% 3 23.10.2026 -
Sorriso Famalicao Aktiv 138 / 124 40% 2 23.10.2026 -
José Bica Leixões Aktiv 103 / 98 40% 1 17.10.2026 -
Pau Víctor Braga Aktiv 133 / 134 40% 1 13.10.2026 -
Martín Tejón Maritimo Aktiv 112 / 118 40% 2 06.10.2026 -
Jesus Ferreira Seattle Sounders Aktiv 133 / 125 40% 1 02.10.2026 -
Roberto Fernández Braga Aktiv 144 / 146 40% 3 29.09.2026 -
Efraín Álvarez Guadalajara Aktiv 124 / 126 40% 1 17.09.2026 -
Alejandro Piedrahita Deportivo Pereira Aktiv 112 / 123 40% 1 13.09.2026 -
Jonas Wind Braga Aktiv 135 / 137 40% 1 12.09.2026 -
Jalen Blesa Rio Ave Aktiv 117 / 116 40% 1 11.09.2026 -
Louis Munteanu DC United Aktiv 131 / 120 40% 1 09.09.2026 -